createdAt,value
2019-05-06T00:00:53.411Z,17.1
2019-05-06T00:04:28.339Z,17.27
2019-05-06T00:07:58.400Z,17.35
2019-05-06T00:11:28.591Z,17.44
2019-05-06T00:14:58.697Z,17.54
2019-05-06T00:18:28.807Z,17.61
2019-05-06T00:21:58.934Z,17.66
2019-05-06T00:25:41.429Z,17.73
2019-05-06T00:29:14.736Z,17.71
2019-05-06T00:32:44.849Z,17.76
2019-05-06T00:36:14.885Z,17.77
2019-05-06T00:39:54.574Z,17.79
2019-05-06T00:43:24.673Z,17.84
2019-05-06T00:46:54.724Z,17.86
2019-05-06T00:50:24.779Z,17.87
2019-05-06T00:54:00.815Z,17.86
2019-05-06T00:57:46.526Z,17.93
2019-05-06T01:00:19.215Z,17.98
2019-05-06T01:03:49.255Z,18.04
2019-05-06T01:07:19.577Z,18.07
2019-05-06T01:10:49.653Z,18.11
2019-05-06T01:14:25.023Z,18.07
2019-05-06T01:17:55.009Z,18.03
2019-05-06T01:21:25.202Z,18.08
2019-05-06T01:24:55.810Z,18.06
2019-05-06T01:28:26.887Z,18.16
2019-05-06T01:31:56.961Z,18.07
2019-05-06T01:35:27.104Z,17.93
2019-05-06T01:41:44.717Z,17.96
2019-05-06T01:45:15.083Z,17.97
2019-05-06T01:48:48.167Z,17.89
2019-05-06T01:52:18.315Z,17.89
2019-05-06T01:55:48.353Z,17.78
2019-05-06T01:59:18.454Z,17.72
2019-05-06T02:02:48.585Z,17.71
2019-05-06T02:06:18.756Z,17.67
2019-05-06T02:09:48.790Z,17.58
2019-05-06T02:13:18.751Z,17.53
2019-05-06T02:16:48.798Z,17.36
2019-05-06T02:20:18.901Z,17.35
2019-05-06T02:23:53.860Z,17.35
2019-05-06T02:27:24.766Z,17.37
2019-05-06T02:33:55.751Z,17.3
2019-05-06T02:37:34.986Z,17.15
2019-05-06T02:41:05.466Z,17.15
2019-05-06T02:44:35.624Z,17.16
2019-05-06T02:48:13.759Z,17.23
2019-05-06T02:51:44.395Z,17.17
2019-05-06T02:55:14.616Z,17.24
2019-05-06T02:58:44.636Z,17.31
2019-05-06T03:00:17.150Z,17.28
2019-05-06T03:03:47.187Z,17.26
2019-05-06T03:07:17.321Z,17.29
2019-05-06T03:10:47.440Z,17.31
2019-05-06T03:14:17.562Z,17.28
2019-05-06T03:17:47.701Z,17.33
2019-05-06T03:21:37.307Z,17.35
2019-05-06T03:25:18.072Z,17.34
2019-05-06T03:28:48.128Z,17.33
2019-05-06T03:32:24.700Z,17.27
2019-05-06T03:36:14.991Z,17.3
2019-05-06T03:39:48.118Z,17.29
2019-05-06T03:43:18.157Z,17.3
2019-05-06T03:49:06.939Z,17.42
2019-05-06T03:52:37.053Z,17.3
2019-05-06T03:56:07.137Z,17.14
2019-05-06T03:59:37.213Z,17.24
2019-05-06T04:03:07.268Z,17.38
2019-05-06T04:06:37.755Z,17.42
2019-05-06T04:10:08.144Z,17.57
2019-05-06T04:13:38.301Z,17.6
2019-05-06T04:17:14.233Z,17.61
2019-05-06T04:20:53.255Z,17.5
2019-05-06T04:24:33.497Z,17.49
2019-05-06T04:28:12.935Z,17.44
2019-05-06T04:31:43.663Z,17.5
2019-05-06T04:35:13.899Z,17.43
2019-05-06T04:38:45.160Z,17.52
2019-05-06T04:42:15.078Z,17.74
2019-05-06T04:45:45.250Z,17.8
2019-05-06T04:49:15.522Z,17.93
2019-05-06T04:52:45.742Z,18.14
2019-05-06T04:56:15.886Z,18.23
2019-05-06T04:59:45.999Z,18.25
2019-05-06T05:00:16.265Z,18.26
2019-05-06T05:03:46.560Z,18.31
2019-05-06T05:07:16.803Z,18.23
2019-05-06T05:11:09.110Z,18.19
2019-05-06T05:14:46.876Z,18.1
2019-05-06T05:18:23.158Z,17.97
2019-05-06T05:22:05.679Z,17.92
2019-05-06T05:25:36.799Z,17.88
2019-05-06T05:29:06.944Z,17.76
2019-05-06T05:32:37.043Z,17.62
2019-05-06T05:36:07.178Z,17.75
2019-05-06T05:39:38.190Z,17.93
2019-05-06T05:43:23.001Z,18.08
2019-05-06T05:46:53.030Z,18.31
2019-05-06T05:50:27.237Z,18.33
2019-05-06T05:53:57.399Z,18.3
2019-05-06T05:57:27.509Z,18.27
2019-05-06T06:00:57.807Z,18.34
2019-05-06T06:04:27.996Z,18.36
2019-05-06T06:07:57.994Z,18.52
2019-05-06T06:11:32.893Z,18.75
2019-05-06T06:15:42.360Z,19.01
2019-05-06T06:19:24.372Z,18.99
2019-05-06T06:22:56.011Z,19.16
2019-05-06T06:26:26.157Z,19.2
2019-05-06T06:29:56.347Z,19.26
2019-05-06T06:33:26.542Z,19.41
2019-05-06T06:37:27.705Z,19.62
2019-05-06T06:40:59.043Z,19.7
2019-05-06T06:44:33.092Z,19.61
2019-05-06T06:48:03.611Z,19.49
2019-05-06T06:51:33.814Z,19.46
2019-05-06T06:55:04.282Z,19.44
2019-05-06T06:58:41.666Z,19.68
2019-05-06T07:00:46.865Z,19.82
2019-05-06T07:04:25.540Z,19.87
2019-05-06T07:07:55.775Z,19.89
2019-05-06T07:11:25.845Z,20.02
2019-05-06T07:15:03.524Z,20.05
2019-05-06T07:18:33.746Z,20.18
2019-05-06T07:22:06.666Z,20.26
2019-05-06T07:25:37.160Z,20.19
2019-05-06T07:29:16.139Z,20.14
2019-05-06T07:32:49.118Z,20.07
2019-05-06T07:36:20.253Z,20.07
2019-05-06T07:39:52.819Z,19.99
2019-05-06T07:43:34.963Z,20.11
2019-05-06T07:47:15.750Z,19.94
2019-05-06T07:50:46.016Z,19.96
2019-05-06T07:54:16.033Z,19.84
2019-05-06T07:57:46.074Z,19.67
2019-05-06T08:01:16.065Z,19.58
2019-05-06T08:04:46.189Z,19.7
2019-05-06T08:08:16.436Z,19.9
2019-05-06T08:11:46.481Z,19.88
2019-05-06T08:15:16.812Z,19.93
2019-05-06T08:18:46.917Z,19.88
2019-05-06T08:22:22.727Z,19.98
2019-05-06T08:26:08.321Z,20.15
2019-05-06T08:29:42.512Z,20.33
2019-05-06T08:33:12.973Z,20.4
2019-05-06T08:37:49.034Z,20.64
2019-05-06T08:41:19.179Z,20.9
2019-05-06T08:44:49.381Z,21.16
2019-05-06T08:48:19.510Z,20.94
2019-05-06T08:51:56.516Z,20.89
2019-05-06T08:55:29.686Z,20.67
2019-05-06T08:58:59.757Z,20.65
2019-05-06T09:00:16.310Z,20.6
2019-05-06T09:03:46.381Z,20.62
2019-05-06T09:07:16.503Z,20.83
2019-05-06T09:10:46.604Z,21.07
2019-05-06T09:14:16.732Z,21.32
2019-05-06T09:17:46.868Z,21.48
2019-05-06T09:21:16.993Z,21.48
2019-05-06T09:24:47.035Z,21.35
2019-05-06T09:28:24.495Z,21.52
2019-05-06T09:31:55.923Z,21.83
2019-05-06T09:35:26.032Z,22.12
2019-05-06T09:38:56.025Z,22.25
2019-05-06T09:42:26.073Z,22.53
2019-05-06T09:45:57.748Z,22.84
2019-05-06T09:49:28.248Z,22.83
2019-05-06T09:52:58.247Z,22.97
2019-05-06T09:56:33.516Z,22.88
2019-05-06T10:00:04.943Z,22.98
2019-05-06T10:03:35.166Z,22.9
2019-05-06T10:07:05.237Z,22.26
2019-05-06T10:10:35.234Z,22.36
2019-05-06T10:14:05.397Z,22.47
2019-05-06T10:17:35.499Z,23.17
2019-05-06T10:21:05.860Z,23.87
2019-05-06T10:24:35.999Z,24.55
2019-05-06T10:28:12.590Z,25.17
2019-05-06T10:31:47.566Z,25.37
2019-05-06T10:35:17.871Z,26.14
2019-05-06T10:38:56.029Z,26.71
2019-05-06T10:42:43.062Z,27.62
2019-05-06T10:46:14.157Z,27.95
2019-05-06T10:49:44.347Z,28.22
2019-05-06T10:53:19.634Z,27.94
2019-05-06T10:57:40.366Z,26.5
2019-05-06T11:00:16.850Z,26.52
2019-05-06T11:03:46.993Z,26.95
2019-05-06T11:07:28.507Z,27.45
2019-05-06T11:11:14.955Z,27.29
2019-05-06T11:14:47.046Z,27.34
2019-05-06T11:18:17.245Z,27.6
2019-05-06T11:21:47.315Z,27.59
2019-05-06T11:25:17.593Z,27.45
2019-05-06T11:28:52.327Z,28
2019-05-06T11:33:04.798Z,27.99
2019-05-06T11:36:42.961Z,27.81
2019-05-06T11:40:16.659Z,27.7
2019-05-06T11:43:47.122Z,27.97
2019-05-06T11:47:18.107Z,27.36
2019-05-06T11:50:50.739Z,27.25
2019-05-06T11:54:24.089Z,27.58
2019-05-06T11:57:54.661Z,27.56
2019-05-06T12:01:27.817Z,27.91
2019-05-06T12:04:57.876Z,28.05
2019-05-06T12:08:28.081Z,27.94
2019-05-06T12:11:58.213Z,28.32
2019-05-06T12:15:28.243Z,28.8
2019-05-06T12:18:59.891Z,29.03
2019-05-06T12:22:37.396Z,28.91
2019-05-06T12:26:07.634Z,29.5
2019-05-06T12:29:38.465Z,29.92
2019-05-06T12:33:36.969Z,30.54
2019-05-06T12:37:12.119Z,29.58
2019-05-06T12:40:42.930Z,29.31
2019-05-06T12:44:13.273Z,28.81
2019-05-06T12:47:53.430Z,28.56
2019-05-06T12:51:23.678Z,28.71
2019-05-06T12:54:54.419Z,28.65
2019-05-06T12:58:37.178Z,28.5
2019-05-06T13:00:17.334Z,28.63
2019-05-06T13:03:47.380Z,28.35
2019-05-06T13:07:24.973Z,27.37
2019-05-06T13:10:55.113Z,27.23
2019-05-06T13:14:25.363Z,27.33
2019-05-06T13:17:55.445Z,26.95
2019-05-06T13:21:25.514Z,28.43
2019-05-06T13:24:55.699Z,29.48
2019-05-06T13:28:30.471Z,30.18
2019-05-06T13:32:02.039Z,30.15
2019-05-06T13:35:32.741Z,28.79
2019-05-06T13:39:14.023Z,26.75
2019-05-06T13:43:33.931Z,25.69
2019-05-06T13:47:04.085Z,25.38
2019-05-06T13:50:38.435Z,25.34
2019-05-06T13:54:08.809Z,26.41
2019-05-06T13:57:39.605Z,26.84
2019-05-06T14:01:14.098Z,28.19
2019-05-06T14:04:44.512Z,28.92
2019-05-06T14:08:14.619Z,29.63
2019-05-06T14:11:44.689Z,30.39
2019-05-06T14:15:16.372Z,30.52
2019-05-06T14:18:46.314Z,30.33
2019-05-06T14:22:16.410Z,30.5
2019-05-06T14:26:04.180Z,31.41
2019-05-06T14:29:38.988Z,29.15
2019-05-06T14:33:09.694Z,27.32
2019-05-06T14:36:39.791Z,25.79
2019-05-06T14:40:13.709Z,25.01
2019-05-06T14:43:43.793Z,24.47
2019-05-06T14:47:18.938Z,23.77
2019-05-06T14:50:55.854Z,23.37
2019-05-06T14:54:27.172Z,23.21
2019-05-06T14:57:57.400Z,24.74
2019-05-06T15:00:17.983Z,25.34
2019-05-06T15:03:48.060Z,24.87
2019-05-06T15:07:18.077Z,24.49
2019-05-06T15:10:49.467Z,24.39
2019-05-06T15:14:19.707Z,25.35
2019-05-06T15:17:50.374Z,27.16
2019-05-06T15:21:33.305Z,27.34
2019-05-06T15:25:07.772Z,27.34
2019-05-06T15:28:37.815Z,28.23
2019-05-06T15:32:13.085Z,28.16
2019-05-06T15:36:55.597Z,29.01
2019-05-06T15:40:32.953Z,29.27
2019-05-06T15:44:05.962Z,29.47
2019-05-06T15:47:36.070Z,28.53
2019-05-06T15:51:07.751Z,27.7
2019-05-06T15:54:37.847Z,27.28
2019-05-06T15:58:07.845Z,26.35
2019-05-06T16:01:38.006Z,25.57
2019-05-06T16:05:13.953Z,24.71
2019-05-06T16:08:49.073Z,24.21
2019-05-06T16:12:19.317Z,23.59
2019-05-06T16:15:49.351Z,23.43
2019-05-06T16:19:19.533Z,23.44
2019-05-06T16:22:55.897Z,23.26
2019-05-06T16:26:26.113Z,23.87
2019-05-06T16:29:56.156Z,24.06
2019-05-06T16:33:26.402Z,24.37
2019-05-06T16:36:56.926Z,24.51
2019-05-06T16:40:28.123Z,24.31
2019-05-06T16:43:59.338Z,24.3
2019-05-06T16:47:38.487Z,23.87
2019-05-06T16:51:12.459Z,23.17
2019-05-06T16:54:43.474Z,22.55
2019-05-06T16:58:15.655Z,22.53
2019-05-06T17:00:22.458Z,22.34
2019-05-06T17:04:00.007Z,22.02
2019-05-06T17:07:30.804Z,21.69
2019-05-06T17:11:04.429Z,21.39
2019-05-06T17:14:34.858Z,21.35
2019-05-06T17:18:05.399Z,21.08
2019-05-06T17:21:35.600Z,21.17
2019-05-06T17:25:05.850Z,21.35
2019-05-06T17:28:45.068Z,21.23
2019-05-06T17:32:35.254Z,21.24
2019-05-06T17:36:06.236Z,20.99
2019-05-06T17:39:36.317Z,20.82
2019-05-06T17:43:06.440Z,20.77
2019-05-06T17:46:43.450Z,20.7
2019-05-06T17:50:13.679Z,20.69
2019-05-06T17:53:46.842Z,20.7
2019-05-06T17:57:16.908Z,20.62
2019-05-06T18:00:46.990Z,20.61
2019-05-06T18:04:17.113Z,20.56
2019-05-06T18:07:47.249Z,20.36
2019-05-06T18:11:17.275Z,20.06
2019-05-06T18:14:47.365Z,19.84
2019-05-06T18:18:17.530Z,19.75
2019-05-06T18:21:47.620Z,19.83
2019-05-06T18:25:17.717Z,19.67
2019-05-06T18:28:47.802Z,19.4
2019-05-06T18:32:17.878Z,19.21
2019-05-06T18:35:47.998Z,18.62
2019-05-06T18:39:18.061Z,18.4
2019-05-06T18:42:48.162Z,18.41
2019-05-06T18:46:18.288Z,18.27
2019-05-06T18:49:48.422Z,18.03
2019-05-06T18:53:18.430Z,17.86
2019-05-06T18:56:49.449Z,17.77
2019-05-06T19:00:16.486Z,17.45
2019-05-06T19:03:58.480Z,17.42
2019-05-06T19:07:28.539Z,17.35
2019-05-06T19:10:58.673Z,17.5
2019-05-06T19:14:28.780Z,17.1
2019-05-06T19:17:58.881Z,16.94
2019-05-06T19:21:28.867Z,16.77
2019-05-06T19:24:58.925Z,16.57
2019-05-06T19:28:28.978Z,16.27
2019-05-06T19:31:58.994Z,16.2
2019-05-06T19:35:29.124Z,16.37
2019-05-06T19:38:59.288Z,16.23
2019-05-06T19:42:42.827Z,16.11
2019-05-06T19:46:16.963Z,16.2
2019-05-06T19:49:46.892Z,16.15
2019-05-06T19:53:16.989Z,16.16
2019-05-06T19:56:47.026Z,16.26
2019-05-06T20:00:18.389Z,16.13
2019-05-06T20:03:48.450Z,16.07
2019-05-06T20:07:30.542Z,16.09
2019-05-06T20:11:23.278Z,16.13
2019-05-06T20:15:31.238Z,16.08
2019-05-06T20:19:02.318Z,15.87
2019-05-06T20:22:32.643Z,15.78
2019-05-06T20:26:02.899Z,15.76
2019-05-06T20:29:35.188Z,15.81
2019-05-06T20:33:07.029Z,15.82
2019-05-06T20:36:37.017Z,15.78
2019-05-06T20:40:07.176Z,15.7
2019-05-06T20:43:37.179Z,15.67
2019-05-06T20:47:07.267Z,15.62
2019-05-06T20:50:37.367Z,15.61
2019-05-06T20:54:07.383Z,15.55
2019-05-06T20:57:37.453Z,15.53
2019-05-06T21:00:17.058Z,15.42
2019-05-06T21:03:47.361Z,15.34
2019-05-06T21:07:17.468Z,15.16
2019-05-06T21:10:49.647Z,14.99
2019-05-06T21:14:22.730Z,14.95
2019-05-06T21:17:52.798Z,14.88
2019-05-06T21:21:22.865Z,14.92
2019-05-06T21:24:52.976Z,14.91
2019-05-06T21:28:23.772Z,14.85
2019-05-06T21:31:53.959Z,14.87
2019-05-06T21:35:23.918Z,14.82
2019-05-06T21:38:53.940Z,14.68
2019-05-06T21:42:24.161Z,14.1
2019-05-06T21:45:54.305Z,13.64
2019-05-06T21:49:24.392Z,13.37
2019-05-06T21:52:54.416Z,13.28
2019-05-06T21:56:24.521Z,13.47
2019-05-06T21:59:54.649Z,13.64
2019-05-06T22:03:24.696Z,13.76
2019-05-06T22:06:54.965Z,13.8
2019-05-06T22:10:25.234Z,13.85
2019-05-06T22:14:00.819Z,13.89
2019-05-06T22:17:32.078Z,13.95
2019-05-06T22:21:22.636Z,14.14
2019-05-06T22:24:57.594Z,14.33
2019-05-06T22:28:28.046Z,14.48
2019-05-06T22:31:58.060Z,14.57
2019-05-06T22:35:28.156Z,14.51
2019-05-06T22:38:58.144Z,14.19
2019-05-06T22:42:28.262Z,14.01
2019-05-06T22:45:58.386Z,13.72
2019-05-06T22:49:28.409Z,13.89
2019-05-06T22:52:58.462Z,14
2019-05-06T22:56:28.543Z,14.16
2019-05-06T22:59:58.486Z,14.29
2019-05-06T23:00:22.397Z,14.28
2019-05-06T23:03:53.156Z,14.37
2019-05-06T23:07:24.225Z,14.44
2019-05-06T23:10:54.292Z,14.53
2019-05-06T23:14:31.268Z,14.61
2019-05-06T23:18:02.320Z,14.65
2019-05-06T23:21:33.677Z,14.74
2019-05-06T23:25:04.323Z,14.61
2019-05-06T23:28:34.346Z,14.6
2019-05-06T23:32:04.612Z,14.62
2019-05-06T23:35:34.614Z,14.41
2019-05-06T23:58:37.229Z,14.23
